Productos aeronáuticos

  • SIGMET
  • METAR / SPECI
  • TAF
  • AIREP
  • Aviso de aeródromo
  • Pronárea
  • Carta superficie
Fecha : 25/06/2017
FTUY 02 SUMU 25 05 30
SUMU TAF 250530Z 2506/2606 36012KT CAVOK TX25/2518Z TN15/2510Z=
SULS TAF 250530Z 2506/2606 36012KT CAVOK TX25/2518Z TN15/2510Z=
SUAA TAF 250530Z 2506/2606 36012KT CAVOK TX25/2518Z TN15/2510Z=
SUCA TAF 250530Z 2506/2606 36012KT CAVOK TX25/2518Z TN15/2510Z=
SUDU TAF 250530Z 2506/2606 36012KT CAVOK TX25/2518Z TN15/2510Z=
SUSO TAF 250530Z 2506/2606 01010KT 9999 FEW027 TX26/2518Z TN16/2510Z=
SURV TAF 250530Z 2506/2606 01010KT 9999 FEW027 TX26/2518Z TN16/2510Z=

Predictor : Ramón Alvariño


Mensajes TAF vigentes - Internacionales


Argentina
TAF SACO 250500Z 2506/2606 05005KT 3000 BR BKN010 TX27/2518 TN12/2510 BECMG 2512/2515 02020KT CAVOK
TAF SABE 250500Z 2506/2606 02010KT CAVOK TX23/2518Z TN17/2509Z PROB30 2509/2511 8000 BECMG 2518/2521 03015KT CAVOK
TAF SAME 250500Z 2506/2606 VRB02KT 9999 BKN040 TX18/2520Z TN07/2510Z PROB40 TEMPO 2511/2514 5000 FU BECMG 2514/2516 14010KT
TAF SAAR 250500Z 2506/2606 36015KT CAVOK TX28/2518Z TN19/2509Z BECMG 2513/2516 02020KT SCT035 BECMG 2520/2523 05010KT BECMG 2603/2605 03015KT
TAF SAEZ 250500Z 2506/2606 02008KT CAVOK TX25/2518Z TN17/2110Z PROB30 TEMPO 2508/2510 5000 BR BECMG 2511/2513 02015KT
Bolivia
TAF SLLP 250415Z 2506/2606 07005KT 9999 NSC TX16/2520Z TNM06/2510Z TEMPO 2507/2511 4000E VCFG FEW002 BECMG 2512/2514 13006KT TEMPO 2517/2521 24012KT FEW020
Brasil
TAF SBBR 250400Z 2506/2606 11006KT CAVOK TN13/2509Z TX24/2518Z FM251200 10013KT 9999 SCT025 FM252200 11008KT CAVOK RMK PDC
TAF SBFL 250300Z 2506/2606 01006KT 9999 SCT030 TX22/2518Z TN18/2606Z PROB30 TEMPO 2506/2509 BKN010 BECMG 2603/2606 34004KT CAVOK RMK PDN
TAF SBPA 250300Z 2506/2606 02002KT CAVOK TN15/2510Z TX25/2518Z PROB30 TEMPO 2521/2602 09004KT RMK PDN
TAF SBFI 250300Z 2506/2606 04005KT CAVOK TN18/2510Z TX28/2518Z PROB30 TEMPO 2516/2519 02010KT RMK PDN
TAF SBSP 250206Z 2506/2606 12005KT 9999 BKN010 TN13/2507Z TX22/2517Z PROB30 2510/2512 5000 BR BKN008 BECMG 2513/2515 06008KT FEW030 BECMG 2519/2521 12008KT SCT025 BECMG 2521/2523 BKN009 BECMG 2603/2605 11004KT FEW011 RMK PGD
TAF SBGR 250206Z 2506/2612 07003KT 8000 BKN012 TN13/2506Z TX22/2518Z PROB30 2507/2512 3000 BCFG BR BKN004 BECMG 2512/2514 06010KT 9999 FEW028 TEMPO 2516/2521 04005KT SCT030 BECMG 2521/2523 13005KT BECMG 2523/2601 09005KT CAVOK BECMG 2607/2609 8000 BKN011 PROB30 2609/2611 4000 BR OVC005 RMK PGD
TAF SBRJ 250200Z 2506/2518 10005KT 9999 FEW020 TN19/2508Z TX23/2517Z PROB30 2509/2511 05005KT 4000 BR BKN006 BECMG 2512/2514 14005KT BKN025 RMK PGY
Colombia
TAF SKBO 250500Z 2506/2606 05006KT 9999 SCT020 SCT200 TEMPO 2506/2508 9000 VCSH SCT017 TEMPO 2508/2512 7000 VCFG DZ SCT015 TEMPO 2517/2522 14010KT 8000 DZRA SCT020TCU TX19/2518Z TN10/2511Z
Chile
TAF SCEL 250442Z 2506/2606 03004KT 6000 BKN130 OVC200 TX12/2519Z TN07/2510Z TEMPO 2508/2514 VRB02KT 4000 BR SCT020 OVC120 BECMG 2516/2518 16008KT 9999 BKN100 OVC170 BECMG 2518/2520 6000 SHRA BKN040 OVC080 BECMG 2600/2602 03004KT 7000 SCT050 BKN150
TAF SCCI 250420Z 2506/2606 27008KT CAVOK TNM06/2510Z TX00/2518Z BECMG 2512/2514 32008KT TEMPO 2506/2516 VRB02KT BECMG 2520/2522 30005KT BECMG 2600/2602 27010KT
Ecuador
SEQM 250440Z 2506/2606 00000KT 5000 BCFG FEW006 BKN026 FM251000 VRB03KT 9999 SCT030 FM251800 35010KT 9999 BKN040 FM260000 03004KT 9999 FEW010 BKN030 TX23/2518Z TN09/2511Z
EEUU
KDCA 250901Z 2509/2606 32005KT P6SM FEW070 SCT250 FM251500 30009KT P6SM FEW070 SCT250 FM260500 30005KT P6SM FEW110 FEW250
KIAD 250901Z 2509/2612 32005KT P6SM FEW070 SCT200 FM251500 30009KT P6SM FEW060 SCT250 FM260500 30005KT P6SM FEW100 FEW250
KMIA 250900Z 2509/2606 12008KT P6SM SCT020 SCT250 FM251400 12012KT P6SM FEW025 SCT050 BKN250 FM260100 10006KT P6SM SCT025 SCT250
KLGA 250838Z 2509/2606 32005KT P6SM SKC FM251500 30006KT P6SM FEW060 FEW250 FM251700 25007KT P6SM SCT080 FM251900 22008KT P6SM SCT080 FM252100 23012G20KT P6SM BKN060 FM252300 26013G19KT P6SM FEW060 FM260300 28010KT P6SM SCT060
KJFK 250838Z 2509/2612 32005KT P6SM FEW110 FM251500 25007KT P6SM FEW060 FEW250 FM251700 22008KT P6SM SCT080 FM252000 21012G18KT P6SM SCT080 FM252300 25015G21KT P6SM SCT060 FM260300 28011KT P6SM SCT060 FM261000 28007KT P6SM SKC
Inglaterra
TAF EGLL 250457Z 2506/2612 25010KT 9999 SCT020 PROB40 TEMPO 2506/2512 7000 -RADZ BKN012 TEMPO 2512/2518 27015G25KT PROB30 TEMPO 2515/2521 8000 -SHRA BECMG 2600/2603 VRB03KT
Panamá
TAF MPTO 250430Z 2506/2612 00000KT 9999 FEW018 SCT100 BECMG 2514/2518 33005KT SCT017 BKN100 PROB30 TEMPO 2519/2523 18006KT 7000 -TSRA SCT015CB BKN090
Paraguay
TAF SGAS 250440Z 2506/2606 06007KT CAVOK TX29/2519Z TN20/2510Z BECMG 2512/2515 05014KT CAVOK BECMG 2600/2603 05008KT CAVOK
Venezuela
TAF SVMI 250400Z 2506/2606 00000KT 9999 SCT016 TX33/18Z TN25/08Z FM250800 00000KT 8000 TSDZ FEW013CB BKN020

* Datos extraidos del Text DataServer de la NOAA (NOAA TEXT DATA SERVER)

Instituto Uruguayo de Meteorología

Dr. Javier Barrios Amorín 1488 - CP 11200
Mesa Central (598) 1895

Montevideo - Uruguay